KILM/ILM METAR and TAF weather

Enter ICAO airport designator
Station Type Date Time Source
KILM METAR 2020/01/27 16:53 UTC NOAA

KILM 271653Z 25012KT 10SM BKN065 14/04 A2990 RMK AO2 SLP126 T01390039


Station Type Date Time Source
KILM Decoded METAR 2020/01/27 16:53 UTC NOAA

WILMINGTON INT'L AIRPORT, NC, United States (KILM) 34-16N 077-54W 9M
Jan 27, 2020 - 11:53 AM EST / 2020.01.27 1653 UTC
Wind: from the WSW (250 degrees) at 14 MPH (12 KT):0
Visibility: 10 mile(s):0
Sky conditions: mostly cloudy
Temperature: 57.0 F (13.9 C)
Dew Point: 39.0 F (3.9 C)
Relative Humidity: 50%
Pressure (altimeter): 29.9 in. Hg (1012 hPa)
ob: KILM 271653Z 25012KT 10SM BKN065 14/04 A2990 RMK AO2 SLP126 T01390039
cycle: 17

Station Type Date Time Source
KILM TAF 2020/01/27 12:22 UTC NOAA

TAF KILM 271120Z 2712/2812 24006KT P6SM VCSH BKN070
FM271800 26008KT P6SM BKN050
FM280000 28006KT P6SM BKN100

Example: see airport list